Time;durP1;ratioP1;P1;durP2;ratioP2;P2;SDS_P1;SDS_P2;PMS_P1;PMS_P2;Temp;Humidity;BMP_temperature;BMP_pressure;BME280_temperature;BME280_humidity;BME280_pressure;Samples;Min_cycle;Max_cycle;Signal;HPM_P1;HPM_P2
2022/10/30 00:00:22;;;;;;;;;16.67;15.00;;;;;19.56;56.24;101236.91;5048715;28;45552;-67
2022/10/30 00:02:51;;;;;;;;;13.67;13.00;;;;;19.45;56.45;101230.06;5045136;28;45613;-67
2022/10/30 00:05:20;;;;;;;;;16.00;14.33;;;;;19.35;56.92;101219.75;5050301;28;45525;-68
2022/10/30 00:07:49;;;;;;;;;16.33;14.67;;;;;19.39;57.01;101240.88;5049773;28;45733;-67
2022/10/30 00:10:16;;;;;;;;;15.33;14.33;;;;;19.40;57.17;101244.41;5048663;28;45960;-67
2022/10/30 00:12:46;;;;;;;;;16.33;15.33;;;;;19.25;57.21;101235.06;5049219;28;45454;-67
2022/10/30 00:15:13;;;;;;;;;22.33;16.33;;;;;19.26;57.69;101236.78;5049812;28;47635;-67
2022/10/30 00:17:39;;;;;;;;;21.00;16.33;;;;;19.28;57.96;101245.59;5053942;28;45834;-67
2022/10/30 00:20:06;;;;;;;;;19.33;19.33;;;;;19.12;58.84;101238.91;5052796;28;45399;-68
2022/10/30 00:22:32;;;;;;;;;21.67;19.33;;;;;18.97;59.47;101249.00;5050161;28;45493;-68
2022/10/30 00:24:57;;;;;;;;;22.67;21.67;;;;;18.92;59.87;101239.44;5045514;28;46685;-67
2022/10/30 00:27:23;;;;;;;;;22.67;20.67;;;;;18.81;60.00;101235.25;5031208;28;45534;-67
2022/10/30 00:29:48;;;;;;;;;24.00;20.33;;;;;18.69;60.57;101234.63;5040843;28;45669;-67
2022/10/30 00:32:14;;;;;;;;;22.33;21.00;;;;;18.62;60.89;101241.88;5061694;28;45413;-66
2022/10/30 00:34:40;;;;;;;;;23.33;20.00;;;;;18.43;61.26;101215.75;5043681;28;45742;-66
2022/10/30 00:37:07;;;;;;;;;27.67;23.00;;;;;18.33;61.98;101206.28;5049178;28;45793;-68
2022/10/30 00:39:35;;;;;;;;;24.67;22.00;;;;;18.35;61.69;101232.78;5050405;28;45576;-68
2022/10/30 00:42:01;;;;;;;;;23.00;21.33;;;;;18.19;62.07;101218.97;5043429;28;45524;-66
2022/10/30 00:44:46;;;;;;;;;23.67;20.67;;;;;18.16;62.71;101238.47;5054237;28;45863;-67
2022/10/30 00:47:34;;;;;;;;;24.00;21.67;;;;;18.02;63.16;101232.59;5046467;28;45813;-67
2022/10/30 00:50:10;;;;;;;;;23.33;23.00;;;;;17.87;63.83;101223.19;5082425;27;45495;-66
2022/10/30 00:52:50;;;;;;;;;28.67;21.33;;;;;17.82;63.81;101235.66;5037392;28;46208;-67
2022/10/30 00:55:22;;;;;;;;;26.00;21.00;;;;;17.77;63.89;101241.03;5053753;28;46581;-66
2022/10/30 00:57:49;;;;;;;;;22.00;19.67;;;;;17.75;63.99;101248.13;5086683;27;45399;-66
2022/10/30 01:00:16;;;;;;;;;20.00;19.00;;;;;17.79;63.98;101248.91;5056616;28;45363;-67
2022/10/30 01:02:43;;;;;;;;;20.00;19.33;;;;;17.80;63.72;101256.88;5050841;28;45558;-66
2022/10/30 01:05:13;;;;;;;;;17.00;16.33;;;;;17.84;63.35;101251.50;5051703;28;45549;-67
2022/10/30 01:07:40;;;;;;;;;23.00;17.00;;;;;17.95;63.15;101258.34;5052303;28;45437;-68
2022/10/30 01:10:06;;;;;;;;;24.67;20.67;;;;;17.95;63.53;101254.81;5052527;28;45515;-67
2022/10/30 01:12:32;;;;;;;;;25.33;19.00;;;;;17.89;63.20;101252.28;5050915;28;45489;-66
2022/10/30 01:14:59;;;;;;;;;21.33;18.33;;;;;17.87;63.21;101257.63;5052485;28;46101;-67
2022/10/30 01:18:00;;;;;;;;;19.00;18.33;;;;;17.89;63.05;101265.53;5054353;28;45941;-66
2022/10/30 01:20:55;;;;;;;;;21.33;19.33;;;;;17.84;62.97;101257.66;5053656;28;45519;-67
2022/10/30 01:23:51;;;;;;;;;24.33;17.67;;;;;17.81;63.13;101257.75;5052357;28;45481;-66
2022/10/30 01:26:36;;;;;;;;;18.67;14.33;;;;;17.82;62.73;101264.81;5049090;28;46860;-67
2022/10/30 01:29:19;;;;;;;;;16.67;16.33;;;;;17.82;62.39;101246.25;5050656;28;45423;-67
2022/10/30 01:32:29;;;;;;;;;18.33;17.00;;;;;17.84;62.42;101255.03;5054977;28;45520;-67
2022/10/30 01:35:00;;;;;;;;;21.00;16.67;;;;;17.87;62.48;101262.03;5007520;28;45388;-67
2022/10/30 01:37:32;;;;;;;;;18.33;15.33;;;;;17.88;62.45;101272.63;5052321;28;46320;-67
2022/10/30 01:40:09;;;;;;;;;11.33;10.67;;;;;17.93;61.97;101260.16;5052185;28;45342;-66
2022/10/30 01:42:45;;;;;;;;;18.33;14.33;;;;;17.98;62.19;101263.56;5048850;28;45504;-67
2022/10/30 01:45:26;;;;;;;;;14.33;11.67;;;;;17.91;62.14;101250.47;5051609;28;45436;-67
2022/10/30 01:48:32;;;;;;;;;15.33;11.33;;;;;17.94;62.17;101256.59;5052103;28;45510;-65
2022/10/30 01:50:58;;;;;;;;;17.33;14.67;;;;;17.98;62.22;101245.00;5049814;28;45469;-67
2022/10/30 01:53:42;;;;;;;;;17.00;12.67;;;;;17.96;62.05;101260.09;5034226;28;45485;-66
2022/10/30 01:56:29;;;;;;;;;18.33;13.67;;;;;18.02;62.22;101254.66;5044013;28;45458;-67
2022/10/30 01:59:12;;;;;;;;;14.67;10.67;;;;;18.08;61.89;101248.38;5056034;28;45452;-67
2022/10/30 02:01:38;;;;;;;;;14.33;12.33;;;;;18.10;62.07;101251.84;5055351;28;45316;-67
2022/10/30 02:04:07;;;;;;;;;14.00;13.67;;;;;17.96;62.39;101230.94;5054879;28;45572;-67
2022/10/30 02:06:33;;;;;;;;;22.00;15.67;;;;;17.96;62.09;101225.66;5056556;28;45753;-65
2022/10/30 02:08:58;;;;;;;;;11.33;11.33;;;;;17.89;62.26;101217.84;5056001;28;46030;-66
2022/10/30 02:11:26;;;;;;;;;19.67;13.67;;;;;17.97;62.16;101222.09;5055045;28;45537;-67
2022/10/30 02:13:55;;;;;;;;;18.00;14.00;;;;;18.08;62.23;101229.81;5055633;28;45457;-67
2022/10/30 02:16:22;;;;;;;;;12.00;12.00;;;;;18.03;61.61;101215.75;5049489;28;45984;-66
2022/10/30 02:18:47;;;;;;;;;17.00;12.33;;;;;18.07;61.50;101213.94;5049911;28;45369;-66
2022/10/30 02:21:13;;;;;;;;;14.33;12.33;;;;;18.02;61.48;101214.03;5067817;27;45386;-66
2022/10/30 02:23:39;;;;;;;;;19.33;16.33;;;;;17.99;61.53;101224.72;5044514;28;45499;-67
2022/10/30 02:26:04;;;;;;;;;16.33;15.33;;;;;17.97;61.80;101222.09;5059362;28;45376;-67
2022/10/30 02:28:30;;;;;;;;;14.00;13.00;;;;;17.87;61.83;101209.03;5059695;28;46010;-68
2022/10/30 02:30:55;;;;;;;;;19.33;14.33;;;;;17.80;61.94;101210.94;5057452;28;45465;-67
2022/10/30 02:33:23;;;;;;;;;20.00;14.67;;;;;17.89;62.14;101223.13;5054302;28;45400;-67
2022/10/30 02:35:49;;;;;;;;;18.00;14.67;;;;;17.78;62.43;101221.56;5055982;28;45547;-67
2022/10/30 02:38:15;;;;;;;;;24.33;16.00;;;;;17.67;62.61;101207.63;5058208;28;45425;-66
2022/10/30 02:40:40;;;;;;;;;17.33;14.00;;;;;17.72;62.74;101219.00;5050819;28;45439;-67
2022/10/30 02:43:06;;;;;;;;;18.67;17.67;;;;;17.61;62.98;101213.06;5050525;28;45531;-67
2022/10/30 02:45:31;;;;;;;;;18.33;15.33;;;;;17.46;62.65;101181.56;5057769;28;45350;-66
2022/10/30 02:47:59;;;;;;;;;16.33;15.33;;;;;17.69;62.95;101220.88;5053906;28;46714;-66
2022/10/30 02:50:24;;;;;;;;;14.00;13.67;;;;;17.69;63.04;101218.22;5053095;28;45634;-67
2022/10/30 02:52:50;;;;;;;;;14.00;13.00;;;;;17.65;62.84;101216.53;5054805;28;45693;-68
2022/10/30 02:55:16;;;;;;;;;14.33;14.00;;;;;17.58;63.17;101202.53;5070812;28;45642;-67
2022/10/30 02:57:41;;;;;;;;;16.33;13.00;;;;;17.49;63.71;101208.88;5055218;28;46408;-67
2022/10/30 03:00:07;;;;;;;;;21.33;14.67;;;;;17.42;63.54;101206.41;5055285;28;45361;-67
2022/10/30 03:02:33;;;;;;;;;21.67;16.00;;;;;17.46;63.45;101214.22;5070120;28;45824;-67
2022/10/30 03:04:58;;;;;;;;;20.00;17.00;;;;;17.42;63.67;101209.91;5070589;28;45573;-67
2022/10/30 03:07:24;;;;;;;;;16.00;15.67;;;;;17.34;63.59;101204.72;5083004;27;47858;-68
2022/10/30 03:09:51;;;;;;;;;17.00;16.00;;;;;17.23;63.93;101196.13;5055563;28;45723;-68
2022/10/30 03:12:16;;;;;;;;;20.00;12.00;;;;;17.13;64.20;101192.78;5059114;28;45386;-68
2022/10/30 03:14:42;;;;;;;;;17.67;13.67;;;;;17.10;64.28;101189.31;5036682;28;45422;-66
2022/10/30 03:17:07;;;;;;;;;6.00;3.00;;;;;17.11;64.25;101202.53;5045684;28;47627;-67
2022/10/30 03:19:34;;;;;;;;;18.67;14.67;;;;;17.10;64.32;101200.75;5054669;28;45416;-67
2022/10/30 03:22:00;;;;;;;;;17.00;14.00;;;;;17.13;64.23;101205.13;5044958;28;45516;-67
2022/10/30 03:24:25;;;;;;;;;19.67;16.67;;;;;17.08;64.48;101197.25;5050530;28;45487;-66
2022/10/30 03:26:51;;;;;;;;;16.33;16.00;;;;;17.02;64.70;101180.63;5055690;28;45608;-67
2022/10/30 03:29:16;;;;;;;;;18.67;13.67;;;;;17.04;64.42;101184.13;5056763;28;45531;-67
2022/10/30 03:31:42;;;;;;;;;18.67;15.33;;;;;16.93;64.56;101171.94;5044274;28;45620;-66
2022/10/30 03:34:07;;;;;;;;;18.00;15.67;;;;;17.14;64.31;101198.94;5049562;28;45705;-66
2022/10/30 03:36:33;;;;;;;;;15.33;11.00;;;;;17.11;64.68;101191.06;5052040;28;45524;-67
2022/10/30 03:38:58;;;;;;;;;24.67;16.00;;;;;17.05;64.68;101191.16;5058491;28;45490;-67
2022/10/30 03:41:24;;;;;;;;;17.67;13.00;;;;;17.04;64.56;101186.78;5058543;28;45366;-66
2022/10/30 03:43:50;;;;;;;;;21.33;12.33;;;;;16.95;64.70;101187.81;5055335;28;45342;-67
2022/10/30 03:46:15;;;;;;;;;15.67;15.67;;;;;16.89;65.04;101177.31;5050474;28;46821;-67
2022/10/30 03:48:41;;;;;;;;;19.33;17.33;;;;;16.79;65.15;101183.66;5039973;28;45702;-67
2022/10/30 03:51:06;;;;;;;;;18.33;15.00;;;;;16.71;65.66;101165.25;5053035;28;45622;-67
2022/10/30 03:53:32;;;;;;;;;18.67;13.67;;;;;16.69;65.22;101167.91;5055599;28;45527;-67
2022/10/30 03:55:59;;;;;;;;;16.33;14.67;;;;;16.83;65.49;101180.94;5057168;28;46150;-67
2022/10/30 03:58:26;;;;;;;;;20.67;17.67;;;;;16.81;65.13;101174.81;5052742;28;45378;-67
2022/10/30 04:00:52;;;;;;;;;15.33;14.00;;;;;16.88;65.39;101183.53;5054458;28;45433;-66
2022/10/30 04:03:18;;;;;;;;;16.00;13.33;;;;;16.84;65.08;101168.59;5055192;28;45729;-66
2022/10/30 04:05:43;;;;;;;;;17.00;15.67;;;;;16.97;64.89;101187.78;5053867;28;46557;-67
2022/10/30 04:08:13;;;;;;;;;21.00;17.00;;;;;16.92;65.26;101169.34;5055034;28;45319;-67
2022/10/30 04:10:43;;;;;;;;;20.33;15.00;;;;;16.89;65.65;101172.88;5058496;28;45435;-66
2022/10/30 04:13:09;;;;;;;;;19.33;13.67;;;;;16.88;65.49;101168.50;5055581;28;45376;-68
2022/10/30 04:15:36;;;;;;;;;19.00;16.67;;;;;16.82;66.18;101167.75;5050082;28;47107;-67
2022/10/30 04:18:02;;;;;;;;;18.00;17.67;;;;;16.82;66.09;101173.91;5064891;27;45851;-67
2022/10/30 04:20:28;;;;;;;;;21.00;18.33;;;;;16.72;66.84;101167.84;5051703;28;45694;-67
2022/10/30 04:22:59;;;;;;;;;20.33;15.67;;;;;16.78;66.79;101187.19;5043910;28;45543;-66
2022/10/30 04:25:24;;;;;;;;;20.33;17.67;;;;;16.65;66.69;101160.91;5057780;28;46070;-67
2022/10/30 04:27:51;;;;;;;;;20.00;16.00;;;;;16.74;66.38;101167.84;5057718;28;45404;-66
2022/10/30 04:30:22;;;;;;;;;20.00;18.00;;;;;16.75;67.08;101173.13;5052684;28;45369;-67
2022/10/30 04:32:49;;;;;;;;;25.00;17.00;;;;;16.70;66.86;101169.69;5053668;28;45459;-68
2022/10/30 04:35:16;;;;;;;;;16.33;16.33;;;;;16.63;67.14;101165.34;5054264;28;46388;-67
2022/10/30 04:37:42;;;;;;;;;17.00;17.00;;;;;16.53;67.30;101154.06;5055959;28;45503;-67
2022/10/30 04:40:08;;;;;;;;;18.67;15.00;;;;;16.54;67.33;101158.47;5052024;28;45441;-66
2022/10/30 04:42:34;;;;;;;;;21.33;16.00;;;;;16.50;68.17;101156.75;5052737;28;45484;-68
2022/10/30 04:45:01;;;;;;;;;16.67;15.33;;;;;16.36;67.65;101134.94;5051559;28;45670;-67
2022/10/30 04:47:27;;;;;;;;;18.33;15.00;;;;;16.38;67.88;101150.81;5068329;27;45587;-67
2022/10/30 04:49:52;;;;;;;;;17.33;15.00;;;;;16.29;67.96;101143.88;5052082;28;45460;-67
2022/10/30 04:52:18;;;;;;;;;24.33;18.67;;;;;16.45;67.76;101161.25;5053669;28;45415;-67
2022/10/30 04:54:44;;;;;;;;;18.00;16.33;;;;;16.49;67.66;101155.03;5054258;28;46281;-68
2022/10/30 04:57:09;;;;;;;;;18.00;15.00;;;;;16.41;67.70;101163.97;5052544;28;45904;-66
2022/10/30 04:59:35;;;;;;;;;18.67;15.33;;;;;16.33;67.81;101158.81;5053357;28;45798;-67
2022/10/30 05:02:00;;;;;;;;;19.33;16.33;;;;;16.34;67.71;101157.88;5056836;28;45427;-66
2022/10/30 05:04:26;;;;;;;;;19.67;15.33;;;;;16.33;67.98;101162.31;5056634;28;45460;-67
2022/10/30 05:06:52;;;;;;;;;19.33;15.33;;;;;16.25;67.90;101143.06;5055445;28;45526;-67
2022/10/30 05:09:17;;;;;;;;;19.00;15.50;;;;;16.28;67.55;101152.72;5053574;28;45505;-68
2022/10/30 05:11:43;;;;;;;;;17.00;13.33;;;;;16.25;67.83;101148.34;5056410;28;45494;-66
2022/10/30 05:14:08;;;;;;;;;16.00;13.33;;;;;16.25;67.88;101156.28;5055640;28;46195;-67
2022/10/30 05:16:34;;;;;;;;;18.00;14.33;;;;;16.25;67.37;101151.00;5051976;28;45811;-66
2022/10/30 05:18:59;;;;;;;;;19.33;17.00;;;;;16.31;67.91;101155.31;5052951;28;45446;-66
2022/10/30 05:21:25;;;;;;;;;19.33;15.67;;;;;16.37;67.32;101164.91;5046793;28;45423;-67
2022/10/30 05:23:50;;;;;;;;;17.67;15.00;;;;;16.30;67.52;101143.88;5050643;28;45362;-67
2022/10/30 05:26:16;;;;;;;;;20.33;14.67;;;;;16.29;67.73;101157.09;5055908;28;45545;-67
2022/10/30 05:28:41;;;;;;;;;15.00;13.33;;;;;16.30;67.24;101154.44;5057403;28;45406;-68
2022/10/30 05:31:07;;;;;;;;;15.00;12.67;;;;;16.27;67.35;101143.03;5056807;28;45520;-67
2022/10/30 05:33:33;;;;;;;;;16.00;13.67;;;;;16.20;67.45;101138.72;5048871;28;46629;-67
2022/10/30 05:35:58;;;;;;;;;17.67;12.33;;;;;16.25;67.48;101139.53;5053051;28;45358;-67
2022/10/30 05:38:24;;;;;;;;;19.67;13.00;;;;;16.19;67.90;101129.06;5051336;28;45750;-67
2022/10/30 05:40:49;;;;;;;;;17.33;14.67;;;;;16.16;67.96;101132.63;5053131;28;45689;-67
2022/10/30 05:43:15;;;;;;;;;16.67;13.00;;;;;16.08;68.14;101116.84;5052290;28;45897;-67
2022/10/30 05:45:40;;;;;;;;;14.33;13.67;;;;;16.15;67.84;101140.56;5052493;28;45599;-67
2022/10/30 05:48:06;;;;;;;;;15.67;12.33;;;;;16.17;67.62;101141.41;5050906;28;45784;-66
2022/10/30 05:50:32;;;;;;;;;17.33;15.67;;;;;16.16;68.00;101156.41;5054668;28;45766;-69
2022/10/30 05:53:00;;;;;;;;;17.67;15.67;;;;;16.11;68.12;101152.94;5063413;27;48054;-67
2022/10/30 05:55:27;;;;;;;;;17.67;17.33;;;;;16.08;68.24;101153.84;5051312;28;45496;-67
2022/10/30 05:58:00;;;;;;;;;16.67;15.67;;;;;16.03;68.29;101145.13;5052792;28;45305;-66
2022/10/30 06:00:27;;;;;;;;;15.00;14.33;;;;;16.08;68.56;101142.41;5052855;28;45896;-66
2022/10/30 06:03:05;;;;;;;;;15.33;14.33;;;;;16.03;68.50;101134.56;5053590;28;47204;-66
2022/10/30 06:05:33;;;;;;;;;19.67;14.67;;;;;16.08;68.80;101145.06;5054124;28;45477;-67
2022/10/30 06:07:59;;;;;;;;;13.00;11.00;;;;;15.99;68.59;101143.44;5056612;28;45404;-67
2022/10/30 06:10:25;;;;;;;;;20.00;18.33;;;;;15.83;69.30;101134.84;5059264;28;45390;-66
2022/10/30 06:12:55;;;;;;;;;20.33;15.33;;;;;15.86;69.01;101136.56;5055712;28;46367;-67
2022/10/30 06:15:21;;;;;;;;;16.33;13.33;;;;;15.87;69.15;101143.59;5055657;28;45362;-68
2022/10/30 06:17:47;;;;;;;;;15.33;13.00;;;;;15.88;69.06;101135.66;5054938;28;45457;-66
2022/10/30 06:20:12;;;;;;;;;17.00;13.00;;;;;15.93;68.78;101138.22;5058714;28;45621;-67
2022/10/30 06:22:38;;;;;;;;;15.00;14.00;;;;;15.91;68.55;101132.09;5048419;28;45547;-66
2022/10/30 06:25:04;;;;;;;;;18.33;14.33;;;;;15.99;68.27;101151.38;5053683;28;45542;-68
2022/10/30 06:27:29;;;;;;;;;16.00;14.67;;;;;15.84;68.74;101123.38;5058900;28;45451;-67
2022/10/30 06:29:55;;;;;;;;;17.67;14.33;;;;;15.87;68.68;101133.00;5055518;28;45472;-67
2022/10/30 06:32:21;;;;;;;;;17.67;13.67;;;;;15.85;69.09;101158.56;5056203;28;46256;-67
2022/10/30 06:34:46;;;;;;;;;19.67;16.67;;;;;15.77;69.49;101163.09;5057319;28;45803;-66
2022/10/30 06:37:12;;;;;;;;;17.33;14.00;;;;;15.72;69.75;101157.88;5055416;28;45654;-67
2022/10/30 06:39:37;;;;;;;;;17.33;14.33;;;;;15.67;69.55;101157.88;5058449;27;45443;-67
2022/10/30 06:42:03;;;;;;;;;19.67;14.33;;;;;15.67;69.22;101157.03;5055043;28;45614;-66
2022/10/30 06:44:28;;;;;;;;;20.67;14.00;;;;;15.58;69.95;101155.34;5058401;28;45515;-67
2022/10/30 06:46:54;;;;;;;;;18.00;15.33;;;;;15.60;70.10;101156.22;5061331;28;45517;-67
2022/10/30 06:49:20;;;;;;;;;16.67;14.67;;;;;15.62;70.17;101170.28;5055671;28;45485;-66
2022/10/30 06:51:47;;;;;;;;;15.33;12.67;;;;;15.62;69.72;101167.63;5059292;28;45353;-66
2022/10/30 06:54:12;;;;;;;;;23.33;16.33;;;;;15.63;69.86;101176.44;5058836;28;45502;-67
2022/10/30 06:56:38;;;;;;;;;16.33;14.67;;;;;15.67;69.78;101180.78;5059208;28;45491;-67
2022/10/30 06:59:03;;;;;;;;;21.00;18.67;;;;;15.61;70.24;101178.22;5058314;28;45406;-66
2022/10/30 07:01:29;;;;;;;;;17.00;14.33;;;;;15.50;70.41;101169.56;5056021;28;45696;-67
2022/10/30 07:03:55;;;;;;;;;20.33;15.67;;;;;15.53;70.21;101177.44;5054621;28;45962;-67
2022/10/30 07:06:20;;;;;;;;;15.00;12.67;;;;;15.58;69.80;101176.47;5057828;28;45438;-67
2022/10/30 07:08:46;;;;;;;;;20.67;15.67;;;;;15.75;69.86;101181.59;5059605;28;45352;-67
2022/10/30 07:11:11;;;;;;;;;18.67;16.00;;;;;15.71;69.72;101171.06;5054353;28;45312;-68
2022/10/30 07:13:37;;;;;;;;;19.00;16.67;;;;;15.67;69.60;101149.97;5055431;28;45448;-66
2022/10/30 07:16:02;;;;;;;;;16.33;15.67;;;;;15.51;69.54;101129.06;5055500;28;45327;-66
2022/10/30 07:18:28;;;;;;;;;18.67;16.00;;;;;15.66;69.71;101166.72;5054778;28;45533;-67
2022/10/30 07:20:55;;;;;;;;;18.33;14.00;;;;;15.69;69.71;101171.09;5063103;28;46455;-67
2022/10/30 07:23:21;;;;;;;;;16.00;15.67;;;;;15.64;70.04;101171.13;5044199;28;45608;-68
2022/10/30 07:25:47;;;;;;;;;21.00;17.00;;;;;15.55;69.52;101151.91;5054513;28;45730;-68
2022/10/30 07:28:12;;;;;;;;;18.67;17.00;;;;;15.60;70.31;101163.28;5055408;28;45654;-65
2022/10/30 07:30:38;;;;;;;;;23.00;19.33;;;;;15.50;70.51;101161.63;5052271;28;45852;-67
2022/10/30 07:33:05;;;;;;;;;21.00;17.67;;;;;15.50;70.35;101151.94;5054459;28;45425;-67
2022/10/30 07:35:33;;;;;;;;;22.25;19.75;;;;;15.59;70.06;101165.03;5053469;28;45560;-66
2022/10/30 07:38:09;;;;;;;;;19.33;19.33;;;;;15.62;69.92;101172.06;5055068;28;45452;-66
2022/10/30 07:40:35;;;;;;;;;21.67;19.67;;;;;15.62;69.78;101172.91;5053199;28;46798;-65
2022/10/30 07:43:02;;;;;;;;;24.67;19.67;;;;;15.72;69.44;101176.34;5055752;28;45499;-67
2022/10/30 07:45:28;;;;;;;;;21.33;19.67;;;;;15.76;69.75;101185.13;5057104;28;45490;-66
2022/10/30 07:47:54;;;;;;;;;22.33;16.33;;;;;15.73;70.01;101174.56;5057822;28;45572;-67
2022/10/30 07:50:20;;;;;;;;;18.00;15.00;;;;;15.80;69.61;101177.16;5057725;28;45535;-67
2022/10/30 07:52:45;;;;;;;;;18.33;15.67;;;;;15.74;69.06;101166.66;5056809;28;45514;-67
2022/10/30 07:55:11;;;;;;;;;18.00;15.67;;;;;15.85;69.28;101169.13;5057164;28;45448;-67
2022/10/30 07:57:39;;;;;;;;;22.00;19.00;;;;;15.87;68.82;101176.19;5055204;28;45632;-68
2022/10/30 08:00:07;;;;;;;;;17.33;16.00;;;;;15.86;69.25;101178.81;5050560;28;46051;-67
2022/10/30 08:02:33;;;;;;;;;17.67;14.33;;;;;15.88;69.23;101167.34;5053735;28;45581;-67
2022/10/30 08:05:01;;;;;;;;;13.67;12.00;;;;;16.07;68.81;101167.09;5053566;28;45835;-67
2022/10/30 08:07:35;;;;;;;;;17.33;14.00;;;;;16.13;68.20;101172.28;5054063;28;45585;-67
2022/10/30 08:10:02;;;;;;;;;20.00;14.00;;;;;16.24;67.98;101177.44;5053653;28;45780;-66
2022/10/30 08:12:28;;;;;;;;;16.67;13.00;;;;;16.37;67.57;101193.97;5052465;28;45503;-68
2022/10/30 08:14:57;;;;;;;;;24.67;18.33;;;;;16.29;67.63;101191.44;5054165;28;45522;-66
2022/10/30 08:17:24;;;;;;;;;18.33;16.00;;;;;16.27;67.55;101188.81;5055622;28;45578;-67
2022/10/30 08:19:49;;;;;;;;;19.33;17.00;;;;;16.45;66.79;101216.78;5069363;27;45497;-67
2022/10/30 08:22:15;;;;;;;;;17.67;12.67;;;;;16.43;66.68;101186.84;5069257;28;45574;-68
2022/10/30 08:24:41;;;;;;;;;12.00;10.33;;;;;16.57;66.44;101222.78;5053984;28;45466;-67
2022/10/30 08:27:06;;;;;;;;;15.00;13.33;;;;;16.61;65.92;101208.59;5053526;28;45718;-67
2022/10/30 08:29:33;;;;;;;;;17.67;12.33;;;;;16.83;65.57;101215.34;5052864;28;46091;-68
2022/10/30 08:31:59;;;;;;;;;19.33;17.67;;;;;17.08;64.42;101231.66;5055122;28;45531;-67
2022/10/30 08:34:30;;;;;;;;;15.33;14.67;;;;;17.16;63.91;101242.16;5057143;28;45430;-67
2022/10/30 08:36:59;;;;;;;;;17.33;13.33;;;;;17.23;63.76;101242.91;5056240;28;45532;-67
2022/10/30 08:39:25;;;;;;;;;16.33;15.00;;;;;17.25;63.33;101219.91;5049822;28;45519;-66
2022/10/30 08:41:50;;;;;;;;;14.33;12.67;;;;;17.10;63.40;101194.59;5049609;28;45651;-66
2022/10/30 08:44:16;;;;;;;;;17.00;14.33;;;;;17.22;63.30;101215.56;5051742;28;45703;-67
2022/10/30 08:46:41;;;;;;;;;20.67;16.67;;;;;17.14;63.79;101215.69;5049168;28;45631;-66
2022/10/30 08:49:07;;;;;;;;;16.33;12.33;;;;;17.15;63.37;101233.31;5053522;28;45496;-66
2022/10/30 08:51:33;;;;;;;;;14.33;12.00;;;;;17.12;63.61;101241.31;5066338;28;45982;-67
2022/10/30 08:53:59;;;;;;;;;19.33;13.67;;;;;17.04;63.92;101242.34;5052572;28;45443;-67
2022/10/30 08:56:25;;;;;;;;;17.67;13.33;;;;;17.02;64.03;101222.97;5049310;28;45784;-66
2022/10/30 08:58:51;;;;;;;;;12.33;11.33;;;;;17.05;63.82;101199.09;5050353;28;46317;-67
2022/10/30 09:01:18;;;;;;;;;15.00;13.67;;;;;17.33;63.12;101210.94;5054481;28;45463;-66
2022/10/30 09:03:44;;;;;;;;;14.67;12.67;;;;;17.35;62.58;101187.09;5057013;28;45497;-66
2022/10/30 09:06:10;;;;;;;;;18.00;13.67;;;;;17.79;61.46;101210.03;5054483;28;45345;-67
2022/10/30 09:08:36;;;;;;;;;15.33;12.00;;;;;17.99;61.02;101199.06;5054535;28;45480;-67
2022/10/30 09:11:02;;;;;;;;;15.33;12.33;;;;;18.22;60.53;101224.19;5051657;28;45670;-67
2022/10/30 09:13:27;;;;;;;;;12.00;12.00;;;;;18.25;60.54;101224.16;5052662;28;45440;-66
2022/10/30 09:15:53;;;;;;;;;14.00;12.67;;;;;18.33;60.09;101234.56;5048244;28;45587;-67
2022/10/30 09:18:20;;;;;;;;;19.00;14.33;;;;;18.61;59.74;101230.38;5053566;28;48144;-69
2022/10/30 09:20:48;;;;;;;;;17.33;14.33;;;;;18.79;58.88;101222.91;5050077;28;45587;-66
2022/10/30 09:23:14;;;;;;;;;17.67;15.33;;;;;19.01;58.57;101225.94;5053472;28;45486;-66
2022/10/30 09:25:43;;;;;;;;;13.00;12.00;;;;;20.20;55.95;101228.88;5056058;28;45715;-67
2022/10/30 09:28:09;;;;;;;;;23.67;16.33;;;;;21.59;52.48;101213.66;5068489;28;48135;-66
2022/10/30 09:30:35;;;;;;;;;17.67;14.67;;;;;22.64;50.13;101225.72;5043863;28;45751;-66
2022/10/30 09:33:02;;;;;;;;;17.67;17.00;;;;;23.27;48.06;101239.97;5052419;28;45555;-66
2022/10/30 09:35:27;;;;;;;;;17.33;14.33;;;;;23.70;47.43;101234.56;5055315;28;45556;-68
2022/10/30 09:37:54;;;;;;;;;15.67;14.00;;;;;23.80;46.40;101238.59;5055823;28;47412;-67
2022/10/30 09:40:30;;;;;;;;;14.67;13.67;;;;;23.58;46.62;101244.00;5059804;28;45354;-66
2022/10/30 09:43:29;;;;;;;;;13.33;12.33;;;;;23.89;46.12;101235.53;5058053;28;45673;-66
2022/10/30 09:46:24;;;;;;;;;16.33;13.67;;;;;24.85;44.58;101233.69;5047913;28;45586;-68
2022/10/30 09:49:20;;;;;;;;;11.00;10.33;;;;;26.37;40.97;101237.28;5023968;28;46151;-67
2022/10/30 09:52:24;;;;;;;;;11.00;10.00;;;;;27.82;38.16;101231.47;5052332;28;45292;-68
2022/10/30 09:54:53;;;;;;;;;14.67;11.33;;;;;28.70;37.69;101238.38;5054687;28;45491;-68
2022/10/30 09:57:43;;;;;;;;;11.25;10.00;;;;;29.12;35.17;101227.56;5060818;28;45582;-68
2022/10/30 10:00:35;;;;;;;;;12.00;10.00;;;;;28.43;35.98;101237.50;5057338;28;45500;-67
2022/10/30 10:03:35;;;;;;;;;10.50;9.00;;;;;27.10;38.61;101222.38;5057490;28;45429;-67
2022/10/30 10:06:02;;;;;;;;;9.00;9.00;;;;;26.44;39.77;101227.91;5055746;28;45559;-68
2022/10/30 10:08:36;;;;;;;;;10.00;9.25;;;;;26.11;40.32;101221.75;5056347;28;45498;-68
2022/10/30 10:11:35;;;;;;;;;10.50;8.50;;;;;26.11;40.00;101225.31;5066810;28;47663;-67
2022/10/30 10:14:20;;;;;;;;;8.00;8.00;;;;;25.64;40.87;101250.19;5054863;28;45314;-67
2022/10/30 10:16:54;;;;;;;;;14.00;11.00;;;;;24.79;41.49;101247.38;5059538;28;45562;-67
2022/10/30 10:19:27;;;;;;;;;10.50;8.25;;;;;24.64;42.12;101225.75;5060395;28;45448;-67
2022/10/30 10:21:58;;;;;;;;;10.67;9.67;;;;;24.79;41.18;101239.31;5057756;28;46518;-67
2022/10/30 10:24:26;;;;;;;;;11.00;10.67;;;;;24.24;42.47;101235.66;5056065;28;45496;-68
2022/10/30 10:27:31;;;;;;;;;12.67;10.00;;;;;23.60;43.09;101231.44;5054857;28;45493;-67
2022/10/30 10:30:05;;;;;;;;;13.00;10.33;;;;;23.25;44.49;101228.53;5033047;28;45482;-67
2022/10/30 10:32:51;;;;;;;;;11.67;10.00;;;;;22.56;45.25;101226.00;5051218;28;45935;-67
2022/10/30 10:35:22;;;;;;;;;8.67;8.67;;;;;22.10;46.60;101241.13;5051073;28;45778;-67
2022/10/30 10:38:12;;;;;;;;;9.00;8.67;;;;;21.92;48.38;101236.47;5059790;28;45444;-66
2022/10/30 10:40:51;;;;;;;;;8.67;8.67;;;;;21.79;48.09;101226.25;5060285;28;45598;-67
2022/10/30 10:43:38;;;;;;;;;9.00;8.67;;;;;21.75;49.04;101231.75;5059596;28;45453;-66
2022/10/30 10:46:07;;;;;;;;;8.33;8.00;;;;;21.55;48.90;101246.69;5053169;28;45848;-68
2022/10/30 10:48:44;;;;;;;;;10.67;9.33;;;;;22.61;47.01;101255.16;5073288;27;45505;-65
2022/10/30 10:51:21;;;;;;;;;11.33;9.67;;;;;23.58;45.03;101268.06;5054121;28;45839;-67
2022/10/30 10:53:57;;;;;;;;;12.00;9.00;;;;;23.70;44.06;101280.91;5056483;28;46741;-67
2022/10/30 10:56:30;;;;;;;;;8.33;8.33;;;;;23.54;44.61;101273.59;5054864;28;45537;-68
2022/10/30 10:59:00;;;;;;;;;9.33;8.00;;;;;23.46;44.56;101268.59;5055026;28;45660;-67
2022/10/30 11:01:37;;;;;;;;;10.67;10.00;;;;;23.24;46.26;101274.00;5058189;28;45449;-65
2022/10/30 11:04:18;;;;;;;;;9.33;9.33;;;;;23.07;47.04;101269.38;5059241;28;46142;-67
2022/10/30 11:06:50;;;;;;;;;9.00;7.33;;;;;23.18;45.73;101271.56;5054398;28;45334;-67
2022/10/30 11:09:19;;;;;;;;;7.00;6.33;;;;;23.43;45.63;101269.59;5067813;28;45442;-66
2022/10/30 11:11:49;;;;;;;;;11.00;9.00;;;;;23.42;45.07;101283.91;5056461;28;45639;-66
2022/10/30 11:14:20;;;;;;;;;9.67;7.67;;;;;24.03;44.01;101292.84;5058737;28;45650;-68
2022/10/30 11:17:43;;;;;;;;;8.67;7.00;;;;;24.41;42.66;101290.22;5056666;28;45745;-66
2022/10/30 11:20:27;;;;;;;;;35.33;33.33;;;;;24.18;44.05;101285.94;5009402;28;45565;-67